createdAt,value
2018-07-07T00:03:28.292Z,17.90
2018-07-07T00:08:31.393Z,17.69
2018-07-07T00:13:34.410Z,17.53
2018-07-07T00:18:37.490Z,17.33
2018-07-07T00:23:40.477Z,17.27
2018-07-07T00:28:43.509Z,17.25
2018-07-07T00:33:46.594Z,17.20
2018-07-07T00:38:49.708Z,17.17
2018-07-07T00:43:52.736Z,17.10
2018-07-07T00:48:55.729Z,17.03
2018-07-07T00:53:58.729Z,16.90
2018-07-07T00:59:01.793Z,16.84
2018-07-07T01:04:05.132Z,16.85
2018-07-07T01:09:08.586Z,16.83
2018-07-07T01:14:12.149Z,16.77
2018-07-07T01:19:15.731Z,16.73
2018-07-07T01:24:19.269Z,16.69
2018-07-07T01:29:22.332Z,16.59
2018-07-07T01:34:25.308Z,16.55
2018-07-07T01:39:28.538Z,16.51
2018-07-07T01:44:31.616Z,16.37
2018-07-07T01:49:35.518Z,16.29
2018-07-07T01:54:38.509Z,16.26
2018-07-07T01:59:41.618Z,16.18
2018-07-07T02:04:44.661Z,16.19
2018-07-07T02:09:47.608Z,16.25
2018-07-07T02:14:50.632Z,16.29
2018-07-07T02:19:53.601Z,16.33
2018-07-07T02:24:56.621Z,16.36
2018-07-07T02:29:59.686Z,16.33
2018-07-07T02:35:02.731Z,16.28
2018-07-07T02:40:05.777Z,16.24
2018-07-07T02:45:08.893Z,16.26
2018-07-07T02:50:12.062Z,16.25
2018-07-07T02:55:15.141Z,16.21
2018-07-07T03:00:18.246Z,16.17
2018-07-07T03:05:21.644Z,16.21
2018-07-07T03:10:25.019Z,16.26
2018-07-07T03:15:28.474Z,16.28
2018-07-07T03:20:31.853Z,16.37
2018-07-07T03:25:35.089Z,16.46
2018-07-07T03:30:38.468Z,16.50
2018-07-07T03:35:41.857Z,16.59
2018-07-07T03:40:45.107Z,16.74
2018-07-07T03:45:48.448Z,16.85
2018-07-07T03:50:51.828Z,16.99
2018-07-07T03:55:55.190Z,17.19
2018-07-07T04:00:58.616Z,17.32
2018-07-07T04:06:02.091Z,17.48
2018-07-07T04:11:05.710Z,17.61
2018-07-07T04:16:09.206Z,17.64
2018-07-07T04:21:12.623Z,17.62
2018-07-07T04:26:15.980Z,17.71
2018-07-07T04:31:19.342Z,17.63
2018-07-07T04:36:22.696Z,17.72
2018-07-07T04:41:25.994Z,17.71
2018-07-07T04:46:30.801Z,17.71
2018-07-07T04:51:34.157Z,17.78
2018-07-07T04:56:37.539Z,17.90
2018-07-07T05:01:40.949Z,18.14
2018-07-07T05:06:44.341Z,18.35
2018-07-07T05:11:47.688Z,18.53
2018-07-07T05:16:51.068Z,18.72
2018-07-07T05:21:54.449Z,19.05
2018-07-07T05:26:57.815Z,19.27
2018-07-07T05:32:01.102Z,19.49
2018-07-07T05:37:04.884Z,19.64
2018-07-07T05:42:08.439Z,19.86
2018-07-07T05:47:11.885Z,20.07
2018-07-07T05:52:15.261Z,20.26
2018-07-07T05:57:18.638Z,20.43
2018-07-07T06:02:21.981Z,20.60
2018-07-07T06:07:25.314Z,20.78
2018-07-07T06:12:28.640Z,20.87
2018-07-07T06:17:32.028Z,21.03
2018-07-07T06:22:35.403Z,21.10
2018-07-07T06:27:38.840Z,21.19
2018-07-07T06:32:42.214Z,21.36
2018-07-07T06:37:45.541Z,21.38
2018-07-07T06:42:48.864Z,21.36
2018-07-07T06:47:52.207Z,21.47
2018-07-07T06:52:55.531Z,21.56
2018-07-07T06:57:58.884Z,21.57
2018-07-07T07:03:02.216Z,21.77
2018-07-07T07:08:05.613Z,21.84
2018-07-07T07:13:09.345Z,22.07
2018-07-07T07:18:12.828Z,22.17
2018-07-07T07:23:16.260Z,22.42
2018-07-07T07:28:19.740Z,22.52
2018-07-07T07:33:23.135Z,22.85
2018-07-07T07:38:26.481Z,22.75
2018-07-07T07:43:29.843Z,22.87
2018-07-07T07:48:33.257Z,22.82
2018-07-07T07:53:36.700Z,23.17
2018-07-07T07:58:40.089Z,23.14
2018-07-07T08:03:43.465Z,23.35
2018-07-07T08:08:46.843Z,23.51
2018-07-07T08:13:50.188Z,23.48
2018-07-07T08:18:53.532Z,24.07
2018-07-07T08:23:56.856Z,24.23
2018-07-07T08:29:00.165Z,24.48
2018-07-07T08:34:03.551Z,24.76
2018-07-07T08:39:06.990Z,24.54
2018-07-07T08:44:10.892Z,24.32
2018-07-07T08:49:14.369Z,24.17
2018-07-07T08:54:17.725Z,24.82
2018-07-07T08:59:21.107Z,24.59
2018-07-07T09:04:24.445Z,24.59
2018-07-07T09:09:27.828Z,25.19
2018-07-07T09:14:31.175Z,25.45
2018-07-07T09:19:34.486Z,25.91
2018-07-07T09:24:37.890Z,25.69
2018-07-07T09:29:41.204Z,26.02
2018-07-07T09:34:44.581Z,25.12
2018-07-07T09:39:47.957Z,25.21
2018-07-07T09:44:51.561Z,25.05
2018-07-07T09:49:54.998Z,25.28
2018-07-07T09:54:58.304Z,24.81
2018-07-07T10:00:01.656Z,24.99
2018-07-07T10:05:04.961Z,25.92
2018-07-07T10:10:08.440Z,25.28
2018-07-07T10:15:11.854Z,25.59
2018-07-07T10:20:15.216Z,26.15
2018-07-07T10:25:18.593Z,25.74
2018-07-07T10:30:21.916Z,25.40
2018-07-07T10:35:25.264Z,25.64
2018-07-07T10:40:28.630Z,26.90
2018-07-07T10:45:32.035Z,26.75
2018-07-07T10:50:35.298Z,26.31
2018-07-07T10:55:38.725Z,25.90
2018-07-07T11:00:42.062Z,26.23
2018-07-07T11:05:45.365Z,26.65
2018-07-07T11:10:48.745Z,26.67
2018-07-07T11:15:52.082Z,26.60
2018-07-07T11:20:55.481Z,26.42
2018-07-07T11:25:58.852Z,25.63
2018-07-07T11:31:02.194Z,25.85
2018-07-07T11:36:05.665Z,26.22
2018-07-07T11:41:10.000Z,25.77
2018-07-07T11:46:13.596Z,25.92
2018-07-07T11:51:16.944Z,26.03
2018-07-07T11:56:20.300Z,25.89
2018-07-07T12:01:23.664Z,26.06
2018-07-07T12:06:27.006Z,26.21
2018-07-07T12:11:30.474Z,26.43
2018-07-07T12:16:33.784Z,26.23
2018-07-07T12:21:37.168Z,26.08
2018-07-07T12:26:40.532Z,26.07
2018-07-07T12:31:43.923Z,26.13
2018-07-07T12:36:47.341Z,26.85
2018-07-07T12:41:50.663Z,27.01
2018-07-07T12:46:54.027Z,26.82
2018-07-07T12:51:57.394Z,26.68
2018-07-07T12:57:00.711Z,26.71
2018-07-07T13:02:04.224Z,27.00
2018-07-07T13:07:07.613Z,27.28
2018-07-07T13:12:11.041Z,27.20
2018-07-07T13:17:14.414Z,27.03
2018-07-07T13:22:17.907Z,27.38
2018-07-07T13:27:21.252Z,26.98
2018-07-07T13:32:24.603Z,27.06
2018-07-07T13:37:28.005Z,27.44
2018-07-07T13:42:31.364Z,27.70
2018-07-07T13:47:34.705Z,27.64
2018-07-07T13:52:38.062Z,27.61
2018-07-07T13:57:41.450Z,27.58
2018-07-07T14:02:45.009Z,27.86
2018-07-07T14:07:48.469Z,28.14
2018-07-07T14:12:51.918Z,28.31
2018-07-07T14:17:55.277Z,28.20
2018-07-07T14:22:58.605Z,28.16
2018-07-07T14:28:01.975Z,28.43
2018-07-07T14:33:05.580Z,28.41
2018-07-07T14:38:08.973Z,28.16
2018-07-07T14:43:12.312Z,28.22
2018-07-07T14:48:15.731Z,28.28
2018-07-07T14:53:19.109Z,28.55
2018-07-07T14:58:22.528Z,29.05
2018-07-07T15:03:25.883Z,29.11
2018-07-07T15:08:29.233Z,29.32
2018-07-07T15:13:32.880Z,29.24
2018-07-07T15:18:36.793Z,29.02
2018-07-07T15:23:40.153Z,28.73
2018-07-07T15:28:43.490Z,28.71
2018-07-07T15:33:47.077Z,28.79
2018-07-07T15:38:50.509Z,29.24
2018-07-07T15:43:53.900Z,29.21
2018-07-07T15:48:57.281Z,29.27
2018-07-07T15:54:00.668Z,29.16
2018-07-07T15:59:04.064Z,29.24
2018-07-07T16:04:07.486Z,28.86
2018-07-07T16:09:10.802Z,28.96
2018-07-07T16:14:14.767Z,29.23
2018-07-07T16:19:19.352Z,29.45
2018-07-07T16:24:22.841Z,29.93
2018-07-07T16:29:26.262Z,30.20
2018-07-07T16:34:29.652Z,29.67
2018-07-07T16:39:33.591Z,29.31
2018-07-07T16:44:37.438Z,29.56
2018-07-07T16:49:40.931Z,29.34
2018-07-07T16:54:44.414Z,29.17
2018-07-07T16:59:47.944Z,28.93
2018-07-07T17:04:51.418Z,28.87
2018-07-07T17:09:54.938Z,28.83
2018-07-07T17:14:59.143Z,28.22
2018-07-07T17:20:02.553Z,27.86
2018-07-07T17:25:06.452Z,27.72
2018-07-07T17:30:11.515Z,27.14
2018-07-07T17:35:15.142Z,27.01
2018-07-07T17:40:18.663Z,26.47
2018-07-07T17:45:22.602Z,26.15
2018-07-07T17:50:33.375Z,25.76
2018-07-07T17:55:36.988Z,25.73
2018-07-07T18:00:43.092Z,25.69
2018-07-07T18:05:46.477Z,25.41
2018-07-07T18:10:49.861Z,25.37
2018-07-07T18:15:54.339Z,25.32
2018-07-07T18:20:57.771Z,25.07
2018-07-07T18:26:01.456Z,24.91
2018-07-07T18:31:05.367Z,24.76
2018-07-07T18:36:08.816Z,24.75
2018-07-07T18:41:12.641Z,24.66
2018-07-07T18:46:16.202Z,24.52
2018-07-07T18:51:19.600Z,24.40
2018-07-07T18:56:22.925Z,24.15
2018-07-07T19:01:26.449Z,23.88
2018-07-07T19:06:29.785Z,23.85
2018-07-07T19:11:33.192Z,23.38
2018-07-07T19:16:36.682Z,23.19
2018-07-07T19:21:46.798Z,23.06
2018-07-07T19:26:51.700Z,22.80
2018-07-07T19:32:00.504Z,22.59
2018-07-07T19:37:09.396Z,22.45
2018-07-07T19:42:13.084Z,22.41
2018-07-07T19:47:16.489Z,22.20
2018-07-07T19:52:19.899Z,22.05
2018-07-07T19:57:23.420Z,21.81
2018-07-07T20:02:26.813Z,21.79
2018-07-07T20:07:30.224Z,21.70
2018-07-07T20:12:33.701Z,21.59
2018-07-07T20:17:54.264Z,21.49
2018-07-07T20:22:57.837Z,21.14
2018-07-07T20:28:06.714Z,21.04
2018-07-07T20:33:10.247Z,20.80
2018-07-07T20:38:13.597Z,20.86
2018-07-07T20:43:16.938Z,20.81
2018-07-07T20:48:20.265Z,20.73
2018-07-07T20:53:23.656Z,20.51
2018-07-07T20:58:27.056Z,20.47
2018-07-07T21:03:30.439Z,20.40
2018-07-07T21:08:33.788Z,20.06
2018-07-07T21:13:37.334Z,20.13
2018-07-07T21:18:40.778Z,20.06
2018-07-07T21:23:44.185Z,19.92
2018-07-07T21:28:47.638Z,19.89
2018-07-07T21:33:51.002Z,19.80
2018-07-07T21:38:54.359Z,19.70
2018-07-07T21:43:57.770Z,19.67
2018-07-07T21:49:01.138Z,19.53
2018-07-07T21:54:04.562Z,19.38
2018-07-07T21:59:13.621Z,19.23
2018-07-07T22:04:22.345Z,19.22
2018-07-07T22:09:25.698Z,19.15
2018-07-07T22:14:29.421Z,19.13
2018-07-07T22:19:32.776Z,19.13
2018-07-07T22:24:36.484Z,19.12
2018-07-07T22:29:39.973Z,19.01
2018-07-07T22:34:43.376Z,18.96
2018-07-07T22:39:47.021Z,18.96
2018-07-07T22:44:50.367Z,18.94
2018-07-07T22:49:53.731Z,18.93
2018-07-07T22:54:57.072Z,18.83
2018-07-07T23:00:00.424Z,18.62
2018-07-07T23:05:03.830Z,18.61
2018-07-07T23:10:07.289Z,18.56
2018-07-07T23:15:10.656Z,18.63
2018-07-07T23:20:14.020Z,18.57
2018-07-07T23:25:17.401Z,18.51
2018-07-07T23:30:21.160Z,18.49
2018-07-07T23:35:24.584Z,18.44
2018-07-07T23:40:27.912Z,18.43
2018-07-07T23:45:31.357Z,18.45
2018-07-07T23:50:34.672Z,18.42
2018-07-07T23:55:38.124Z,18.50
